createdAt,value
2019-04-11T00:00:01.415Z,0.16
2019-04-11T00:02:33.131Z,0.11
2019-04-11T00:05:06.323Z,0.01
2019-04-11T00:07:38.568Z,-0.11
2019-04-11T00:10:10.362Z,-0.10
2019-04-11T00:12:42.981Z,-0.07
2019-04-11T00:15:14.567Z,-0.23
2019-04-11T00:17:46.056Z,-0.32
2019-04-11T00:20:18.677Z,-0.32
2019-04-11T00:22:51.293Z,-0.30
2019-04-11T00:25:23.222Z,-0.29
2019-04-11T00:27:54.828Z,-0.25
2019-04-11T00:30:26.203Z,-0.18
2019-04-11T00:32:58.218Z,-0.11
2019-04-11T00:35:29.507Z,-0.08
2019-04-11T00:38:01.427Z,-0.08
2019-04-11T00:40:33.290Z,-0.06
2019-04-11T00:43:05.228Z,-0.03
2019-04-11T00:45:38.150Z,-0.10
2019-04-11T00:48:09.943Z,-0.11
2019-04-11T00:50:41.659Z,-0.10
2019-04-11T00:53:13.931Z,-0.09
2019-04-11T00:55:46.004Z,-0.22
2019-04-11T00:58:17.392Z,-0.45
2019-04-11T01:00:48.263Z,-0.34
2019-04-11T01:03:20.227Z,-0.30
2019-04-11T01:05:52.003Z,-0.33
2019-04-11T01:08:23.967Z,-0.34
2019-04-11T01:10:57.397Z,-0.34
2019-04-11T01:13:40.582Z,-0.31
2019-04-11T01:16:05.042Z,-0.34
2019-04-11T01:18:38.228Z,-0.34
2019-04-11T01:21:10.380Z,-0.34
2019-04-11T01:23:42.922Z,-0.33
2019-04-11T01:26:14.911Z,-0.38
2019-04-11T01:28:46.992Z,-0.38
2019-04-11T01:31:21.635Z,-0.35
2019-04-11T01:33:53.837Z,-0.31
2019-04-11T01:36:26.745Z,-0.30
2019-04-11T01:39:01.384Z,-0.30
2019-04-11T01:41:34.349Z,-0.39
2019-04-11T01:44:09.382Z,-0.43
2019-04-11T01:46:42.350Z,-0.52
2019-04-11T01:49:17.909Z,-0.46
2019-04-11T01:51:49.754Z,-0.41
2019-04-11T01:54:21.809Z,-0.41
2019-04-11T01:56:53.681Z,-0.44
2019-04-11T01:59:27.022Z,-0.46
2019-04-11T02:02:01.140Z,-0.67
2019-04-11T02:04:34.515Z,-0.67
2019-04-11T02:07:06.637Z,-0.48
2019-04-11T02:09:38.410Z,-0.47
2019-04-11T02:12:09.948Z,-0.51
2019-04-11T02:14:41.745Z,-0.51
2019-04-11T02:17:14.729Z,-0.54
2019-04-11T02:19:46.149Z,-0.52
2019-04-11T02:22:18.682Z,-0.55
2019-04-11T02:24:52.241Z,-0.54
2019-04-11T02:27:26.006Z,-0.52
2019-04-11T02:29:58.539Z,-0.51
2019-04-11T02:32:31.809Z,-0.51
2019-04-11T02:35:05.193Z,-0.50
2019-04-11T02:37:35.727Z,-0.55
2019-04-11T02:40:08.936Z,-0.53
2019-04-11T02:42:41.165Z,-0.54
2019-04-11T02:45:24.980Z,-0.56
2019-04-11T02:47:48.461Z,-0.60
2019-04-11T02:50:21.978Z,-0.67
2019-04-11T02:52:53.147Z,-0.67
2019-04-11T02:55:25.204Z,-0.72
2019-04-11T02:57:59.126Z,-0.74
2019-04-11T03:00:31.076Z,-0.81
2019-04-11T03:03:03.661Z,-0.77
2019-04-11T03:05:37.536Z,-0.75
2019-04-11T03:08:12.136Z,-0.74
2019-04-11T03:10:43.004Z,-0.77
2019-04-11T03:13:16.770Z,-0.76
2019-04-11T03:16:00.062Z,-0.78
2019-04-11T03:18:40.773Z,-0.83
2019-04-11T03:20:59.833Z,-0.87
2019-04-11T03:23:28.560Z,-0.84
2019-04-11T03:26:00.698Z,-0.93
2019-04-11T03:28:34.019Z,-0.98
2019-04-11T03:31:42.212Z,-1.04
2019-04-11T03:34:44.582Z,-1.02
2019-04-11T03:37:08.735Z,-0.99
2019-04-11T03:39:13.097Z,-0.97
2019-04-11T03:41:38.508Z,-0.99
2019-04-11T03:44:00.367Z,-0.99
2019-04-11T03:46:43.342Z,-1.00
2019-04-11T03:49:16.922Z,-1.00
2019-04-11T03:51:36.479Z,-1.00
2019-04-11T03:54:09.721Z,-1.03
2019-04-11T03:56:41.406Z,-1.05
2019-04-11T03:59:16.463Z,-1.01
2019-04-11T04:01:48.728Z,-1.04
2019-04-11T04:04:21.819Z,-1.05
2019-04-11T04:06:55.190Z,-1.05
2019-04-11T04:09:28.647Z,-1.05
2019-04-11T04:12:00.378Z,-1.12
2019-04-11T04:14:34.530Z,-1.19
2019-04-11T04:17:08.430Z,-1.17
2019-04-11T04:19:40.983Z,-1.19
2019-04-11T04:22:15.910Z,-1.16
2019-04-11T04:24:49.107Z,-1.18
2019-04-11T04:27:23.281Z,-1.21
2019-04-11T04:29:57.753Z,-1.18
2019-04-11T04:32:28.082Z,-1.15
2019-04-11T04:35:01.125Z,-1.16
2019-04-11T04:37:34.759Z,-1.17
2019-04-11T04:40:23.857Z,-1.14
2019-04-11T04:42:46.647Z,-1.09
2019-04-11T04:45:16.229Z,-1.02
2019-04-11T04:47:51.961Z,-0.97
2019-04-11T04:50:20.124Z,-0.92
2019-04-11T04:52:53.464Z,-0.88
2019-04-11T04:55:25.973Z,-0.84
2019-04-11T04:57:59.443Z,-0.77
2019-04-11T05:00:32.030Z,-0.66
2019-04-11T05:03:05.497Z,-0.61
2019-04-11T05:05:38.331Z,-0.57
2019-04-11T05:08:11.120Z,-0.48
2019-04-11T05:10:42.587Z,-0.40
2019-04-11T05:13:15.686Z,-0.38
2019-04-11T05:15:48.976Z,-0.40
2019-04-11T05:18:23.759Z,-0.34
2019-04-11T05:20:55.403Z,-0.27
2019-04-11T05:23:27.671Z,-0.22
2019-04-11T05:26:00.166Z,-0.12
2019-04-11T05:28:32.815Z,-0.03
2019-04-11T05:31:04.208Z,0.05
2019-04-11T05:33:35.562Z,0.13
2019-04-11T05:36:07.907Z,0.24
2019-04-11T05:38:39.228Z,0.35
2019-04-11T05:41:12.227Z,0.47
2019-04-11T05:43:43.272Z,0.60
2019-04-11T05:46:26.081Z,0.69
2019-04-11T05:48:50.640Z,0.81
2019-04-11T05:51:23.823Z,0.95
2019-04-11T05:53:57.758Z,1.05
2019-04-11T05:56:30.514Z,1.25
2019-04-11T05:59:03.584Z,1.40
2019-04-11T06:01:39.914Z,1.51
2019-04-11T06:04:20.311Z,1.60
2019-04-11T06:06:50.647Z,1.70
2019-04-11T06:09:23.412Z,1.79
2019-04-11T06:11:57.266Z,1.91
2019-04-11T06:14:29.341Z,2.08
2019-04-11T06:17:02.115Z,2.15
2019-04-11T06:19:34.703Z,2.19
2019-04-11T06:22:08.686Z,2.34
2019-04-11T06:24:42.606Z,2.38
2019-04-11T06:27:16.699Z,2.35
2019-04-11T06:29:50.721Z,2.51
2019-04-11T06:32:23.789Z,2.44
2019-04-11T06:34:57.694Z,2.66
2019-04-11T06:37:30.547Z,2.74
2019-04-11T06:40:04.188Z,2.97
2019-04-11T06:42:37.659Z,2.97
2019-04-11T06:45:11.286Z,2.99
2019-04-11T06:47:45.086Z,3.13
2019-04-11T06:50:17.787Z,3.30
2019-04-11T06:52:49.427Z,3.32
2019-04-11T06:55:22.870Z,3.25
2019-04-11T06:57:56.374Z,3.24
2019-04-11T07:00:29.307Z,3.51
2019-04-11T07:03:03.517Z,3.63
2019-04-11T07:05:36.368Z,3.69
2019-04-11T07:08:07.723Z,3.56
2019-04-11T07:10:40.458Z,3.70
2019-04-11T07:13:12.910Z,3.63
2019-04-11T07:15:46.468Z,3.74
2019-04-11T07:18:18.939Z,3.72
2019-04-11T07:20:52.379Z,3.51
2019-04-11T07:23:26.357Z,3.51
2019-04-11T07:26:00.301Z,3.62
2019-04-11T07:28:33.689Z,3.69
2019-04-11T07:31:06.870Z,3.84
2019-04-11T07:33:40.846Z,4.02
2019-04-11T07:36:14.655Z,4.10
2019-04-11T07:38:50.828Z,4.11
2019-04-11T07:41:23.943Z,4.36
2019-04-11T07:43:56.534Z,4.65
2019-04-11T07:46:29.018Z,4.70
2019-04-11T07:49:01.503Z,4.68
2019-04-11T07:51:34.301Z,4.68
2019-04-11T07:54:06.211Z,4.87
2019-04-11T07:56:39.349Z,4.77
2019-04-11T07:59:12.906Z,4.64
2019-04-11T08:01:46.867Z,4.74
2019-04-11T08:04:19.715Z,4.90
2019-04-11T08:07:02.176Z,4.93
2019-04-11T08:09:34.240Z,5.07
2019-04-11T08:12:08.668Z,5.12
2019-04-11T08:14:42.526Z,5.34
2019-04-11T08:17:38.552Z,5.59
2019-04-11T08:20:13.139Z,5.72
2019-04-11T08:22:49.610Z,5.98
2019-04-11T08:25:23.020Z,6.18
2019-04-11T08:28:00.712Z,6.00
2019-04-11T08:30:32.842Z,6.08
2019-04-11T08:33:07.499Z,6.36
2019-04-11T08:35:42.049Z,6.42
2019-04-11T08:38:18.362Z,6.51
2019-04-11T08:40:53.265Z,6.34
2019-04-11T08:43:26.914Z,6.13
2019-04-11T08:46:00.820Z,5.96
2019-04-11T08:48:35.165Z,5.76
2019-04-11T08:51:09.688Z,5.82
2019-04-11T08:53:42.846Z,5.88
2019-04-11T08:56:15.924Z,6.03
2019-04-11T08:58:51.468Z,5.98
2019-04-11T09:01:24.770Z,6.10
2019-04-11T09:04:05.186Z,6.04
2019-04-11T09:06:32.956Z,5.95
2019-04-11T09:09:07.421Z,5.87
2019-04-11T09:11:42.751Z,5.80
2019-04-11T09:14:18.606Z,5.92
2019-04-11T09:16:52.207Z,6.03
2019-04-11T09:19:25.755Z,5.97
2019-04-11T09:22:07.278Z,6.23
2019-04-11T09:24:41.110Z,6.85
2019-04-11T09:27:14.280Z,6.98
2019-04-11T09:29:54.530Z,6.90
2019-04-11T09:32:30.177Z,7.24
2019-04-11T09:35:04.565Z,7.56
2019-04-11T09:37:36.117Z,7.40
2019-04-11T09:40:09.951Z,7.18
2019-04-11T09:42:43.136Z,7.13
2019-04-11T09:45:15.521Z,7.10
2019-04-11T09:47:49.830Z,6.84
2019-04-11T09:50:22.429Z,6.79
2019-04-11T09:52:55.948Z,6.48
2019-04-11T09:55:26.616Z,6.50
2019-04-11T09:58:00.937Z,6.42
2019-04-11T10:00:32.854Z,6.41
2019-04-11T10:03:06.516Z,6.30
2019-04-11T10:05:40.537Z,6.23
2019-04-11T10:08:14.752Z,6.28
2019-04-11T10:10:48.937Z,6.36
2019-04-11T10:13:21.473Z,6.45
2019-04-11T10:15:55.625Z,6.49
2019-04-11T10:18:33.706Z,6.57
2019-04-11T10:21:04.845Z,6.68
2019-04-11T10:23:37.276Z,6.76
2019-04-11T10:26:08.056Z,6.65
2019-04-11T10:28:41.704Z,6.66
2019-04-11T10:31:12.720Z,6.72
2019-04-11T10:33:45.537Z,6.80
2019-04-11T10:36:18.964Z,6.90
2019-04-11T10:38:51.681Z,7.03
2019-04-11T10:41:25.191Z,7.03
2019-04-11T10:43:57.172Z,6.86
2019-04-11T10:46:33.474Z,6.82
2019-04-11T10:49:07.477Z,6.88
2019-04-11T10:51:40.882Z,6.66
2019-04-11T10:54:16.585Z,6.67
2019-04-11T10:57:05.616Z,6.62
2019-04-11T10:59:44.886Z,6.73
2019-04-11T11:02:17.872Z,6.69
2019-04-11T11:04:52.577Z,6.76
2019-04-11T11:07:24.824Z,6.66
2019-04-11T11:09:58.730Z,6.68
2019-04-11T11:12:33.009Z,6.82
2019-04-11T11:15:07.897Z,7.01
2019-04-11T11:18:21.713Z,7.07
2019-04-11T11:20:36.347Z,7.13
2019-04-11T11:23:10.929Z,7.04
2019-04-11T11:25:48.543Z,7.01
2019-04-11T11:28:21.514Z,6.96
2019-04-11T11:30:54.439Z,6.95
2019-04-11T11:33:27.983Z,6.93
2019-04-11T11:36:03.278Z,6.86
2019-04-11T11:38:37.697Z,6.84
2019-04-11T11:41:12.133Z,6.86
2019-04-11T11:43:45.408Z,6.90
2019-04-11T11:46:19.341Z,7.08
2019-04-11T11:48:54.155Z,7.11
2019-04-11T11:51:29.600Z,7.18
2019-04-11T11:54:02.990Z,7.02
2019-04-11T11:56:36.207Z,7.06
2019-04-11T11:59:11.156Z,7.03
2019-04-11T12:01:48.027Z,7.08
2019-04-11T12:04:19.624Z,6.97
2019-04-11T12:06:56.761Z,6.87
2019-04-11T12:09:26.677Z,6.76
2019-04-11T12:12:00.167Z,6.93
2019-04-11T12:14:35.226Z,7.05
2019-04-11T12:17:08.554Z,7.06
2019-04-11T12:19:51.136Z,6.99
2019-04-11T12:22:20.021Z,6.94
2019-04-11T12:24:56.448Z,6.95
2019-04-11T12:27:29.560Z,7.00
2019-04-11T12:30:13.559Z,6.91
2019-04-11T12:32:55.115Z,7.03
2019-04-11T12:35:29.076Z,6.83
2019-04-11T12:38:01.646Z,6.86
2019-04-11T12:40:34.607Z,6.91
2019-04-11T12:43:07.559Z,6.96
2019-04-11T12:45:40.441Z,6.96
2019-04-11T12:48:13.666Z,6.93
2019-04-11T12:50:46.884Z,6.81
2019-04-11T12:53:19.345Z,6.81
2019-04-11T12:55:52.074Z,6.80
2019-04-11T12:58:25.247Z,6.73
2019-04-11T13:00:58.301Z,6.71
2019-04-11T13:03:40.540Z,6.69
2019-04-11T13:06:14.249Z,6.74
2019-04-11T13:08:48.887Z,6.76
2019-04-11T13:11:22.160Z,6.70
2019-04-11T13:13:54.847Z,6.65
2019-04-11T13:16:27.799Z,6.64
2019-04-11T13:19:00.492Z,6.74
2019-04-11T13:21:33.471Z,6.74
2019-04-11T13:24:06.321Z,6.68
2019-04-11T13:26:40.342Z,6.73
2019-04-11T13:29:13.700Z,6.72
2019-04-11T13:31:46.480Z,6.62
2019-04-11T13:34:22.294Z,6.71
2019-04-11T13:36:55.224Z,6.84
2019-04-11T13:39:28.101Z,6.94
2019-04-11T13:42:02.137Z,6.98
2019-04-11T13:44:37.731Z,6.95
2019-04-11T13:47:10.706Z,6.93
2019-04-11T13:49:44.436Z,6.97
2019-04-11T13:52:18.743Z,6.91
2019-04-11T13:54:57.342Z,6.91
2019-04-11T13:57:30.538Z,6.89
2019-04-11T14:00:09.649Z,6.81
2019-04-11T14:02:51.132Z,6.84
2019-04-11T14:05:20.785Z,6.94
2019-04-11T14:07:54.236Z,6.97
2019-04-11T14:10:31.368Z,6.86
2019-04-11T14:13:04.090Z,6.81
2019-04-11T14:15:40.529Z,6.77
2019-04-11T14:18:13.280Z,6.77
2019-04-11T14:20:50.049Z,6.76
2019-04-11T14:23:25.514Z,6.81
2019-04-11T14:26:02.464Z,6.74
2019-04-11T14:28:39.752Z,6.76
2019-04-11T14:31:13.007Z,6.76
2019-04-11T14:33:48.356Z,6.73
2019-04-11T14:36:33.090Z,6.62
2019-04-11T14:39:01.651Z,6.53
2019-04-11T14:41:37.312Z,6.46
2019-04-11T14:44:15.807Z,6.45
2019-04-11T14:46:49.889Z,6.53
2019-04-11T14:49:23.186Z,6.49
2019-04-11T14:51:58.955Z,6.57
2019-04-11T14:54:32.379Z,6.54
2019-04-11T14:57:05.492Z,6.60
2019-04-11T14:59:39.126Z,6.65
2019-04-11T15:02:12.981Z,6.67
2019-04-11T15:04:46.130Z,6.61
2019-04-11T15:07:19.649Z,6.63
2019-04-11T15:09:53.089Z,6.60
2019-04-11T15:12:26.353Z,6.64
2019-04-11T15:14:57.107Z,6.65
2019-04-11T15:17:30.061Z,6.53
2019-04-11T15:20:03.282Z,6.50
2019-04-11T15:22:39.312Z,6.34
2019-04-11T15:25:13.913Z,6.35
2019-04-11T15:28:13.169Z,6.39
2019-04-11T15:30:49.773Z,6.32
2019-04-11T15:33:23.149Z,6.26
2019-04-11T15:35:58.031Z,6.30
2019-04-11T15:38:30.616Z,6.23
2019-04-11T15:41:05.675Z,6.18
2019-04-11T15:43:46.212Z,6.23
2019-04-11T15:46:21.492Z,6.28
2019-04-11T15:48:55.733Z,6.19
2019-04-11T15:51:30.371Z,6.16
2019-04-11T15:54:06.907Z,6.15
2019-04-11T15:56:41.915Z,6.18
2019-04-11T15:59:13.145Z,6.14
2019-04-11T16:01:46.910Z,6.05
2019-04-11T16:04:19.752Z,6.08
2019-04-11T16:06:54.298Z,6.11
2019-04-11T16:09:26.500Z,6.15
2019-04-11T16:11:59.665Z,6.12
2019-04-11T16:14:31.614Z,6.12
2019-04-11T16:17:05.347Z,6.09
2019-04-11T16:19:38.403Z,6.02
2019-04-11T16:22:11.142Z,5.98
2019-04-11T16:24:44.104Z,5.95
2019-04-11T16:27:18.001Z,5.93
2019-04-11T16:29:53.071Z,5.94
2019-04-11T16:32:26.553Z,5.88
2019-04-11T16:34:59.680Z,5.84
2019-04-11T16:37:31.330Z,5.88
2019-04-11T16:40:04.383Z,5.74
2019-04-11T16:42:36.801Z,5.67
2019-04-11T16:45:10.581Z,5.60
2019-04-11T16:47:43.706Z,5.57
2019-04-11T16:50:14.940Z,5.51
2019-04-11T16:52:46.310Z,5.57
2019-04-11T16:55:18.065Z,5.57
2019-04-11T16:58:01.176Z,5.53
2019-04-11T17:00:52.113Z,5.51
2019-04-11T17:03:24.822Z,5.54
2019-04-11T17:05:55.903Z,5.34
2019-04-11T17:08:29.182Z,5.36
2019-04-11T17:11:02.641Z,5.34
2019-04-11T17:13:34.831Z,5.38
2019-04-11T17:16:08.100Z,5.43
2019-04-11T17:18:39.788Z,5.34
2019-04-11T17:21:11.439Z,5.36
2019-04-11T17:23:46.889Z,5.36
2019-04-11T17:26:15.757Z,5.37
2019-04-11T17:28:47.827Z,5.37
2019-04-11T17:31:19.447Z,5.35
2019-04-11T17:33:50.866Z,5.30
2019-04-11T17:36:23.073Z,5.22
2019-04-11T17:38:54.587Z,5.13
2019-04-11T17:41:26.257Z,5.17
2019-04-11T17:43:58.818Z,5.13
2019-04-11T17:46:30.075Z,5.15
2019-04-11T17:49:01.651Z,5.16
2019-04-11T17:51:34.790Z,5.13
2019-04-11T17:54:06.193Z,5.07
2019-04-11T17:56:38.030Z,5.05
2019-04-11T17:59:12.042Z,5.04
2019-04-11T18:01:42.412Z,5.05
2019-04-11T18:04:14.164Z,5.07
2019-04-11T18:06:47.246Z,5.03
2019-04-11T18:09:20.475Z,5.02
2019-04-11T18:11:55.863Z,5.03
2019-04-11T18:14:24.332Z,5.07
2019-04-11T18:16:56.013Z,5.05
2019-04-11T18:19:27.741Z,5.06
2019-04-11T18:22:07.683Z,5.06
2019-04-11T18:24:34.562Z,5.02
2019-04-11T18:27:05.803Z,5.01
2019-04-11T18:29:39.579Z,4.97
2019-04-11T18:32:12.035Z,5.03
2019-04-11T18:34:43.491Z,5.07
2019-04-11T18:37:16.210Z,5.02
2019-04-11T18:39:48.241Z,5.04
2019-04-11T18:42:20.433Z,5.07
2019-04-11T18:44:54.336Z,5.05
2019-04-11T18:47:26.710Z,5.05
2019-04-11T18:50:00.750Z,4.97
2019-04-11T18:52:34.634Z,5.03
2019-04-11T18:55:08.346Z,4.98
2019-04-11T18:57:40.105Z,5.01
2019-04-11T19:00:14.179Z,5.03
2019-04-11T19:02:47.588Z,5.04
2019-04-11T19:05:28.205Z,5.02
2019-04-11T19:07:52.767Z,4.99
2019-04-11T19:10:24.719Z,5.00
2019-04-11T19:12:56.528Z,4.88
2019-04-11T19:15:29.191Z,4.87
2019-04-11T19:18:06.560Z,4.86
2019-04-11T19:20:34.113Z,4.80
2019-04-11T19:23:08.593Z,4.84
2019-04-11T19:25:44.500Z,4.86
2019-04-11T19:28:25.839Z,4.87
2019-04-11T19:31:04.005Z,4.89
2019-04-11T19:33:36.761Z,4.90
2019-04-11T19:36:09.997Z,4.94
2019-04-11T19:38:43.298Z,4.88
2019-04-11T19:41:17.997Z,4.84
2019-04-11T19:43:50.726Z,4.76
2019-04-11T19:46:22.098Z,4.71
2019-04-11T19:48:57.039Z,4.73
2019-04-11T19:51:29.081Z,4.70
2019-04-11T19:54:03.839Z,4.67
2019-04-11T19:56:43.166Z,4.60
2019-04-11T19:59:17.525Z,4.65
2019-04-11T20:01:53.203Z,4.66
2019-04-11T20:04:25.204Z,4.66
2019-04-11T20:06:56.843Z,4.64
2019-04-11T20:09:29.852Z,4.58
2019-04-11T20:12:01.684Z,4.64
2019-04-11T20:14:35.069Z,4.67
2019-04-11T20:17:05.784Z,4.59
2019-04-11T20:19:37.044Z,4.66
2019-04-11T20:22:09.265Z,4.71
2019-04-11T20:24:45.963Z,4.63
2019-04-11T20:27:14.264Z,4.64
2019-04-11T20:29:56.951Z,4.65
2019-04-11T20:32:33.991Z,4.67
2019-04-11T20:35:09.381Z,4.62
2019-04-11T20:37:48.267Z,4.52
2019-04-11T20:40:23.323Z,4.47
2019-04-11T20:42:57.794Z,4.46
2019-04-11T20:45:30.963Z,4.42
2019-04-11T20:48:02.164Z,4.38
2019-04-11T20:50:33.562Z,4.38
2019-04-11T20:53:12.654Z,4.41
2019-04-11T20:55:39.909Z,4.39
2019-04-11T20:58:11.824Z,4.33
2019-04-11T21:00:50.137Z,4.29
2019-04-11T21:03:18.731Z,4.32
2019-04-11T21:05:49.592Z,4.31
2019-04-11T21:08:20.695Z,4.31
2019-04-11T21:10:51.605Z,4.31
2019-04-11T21:13:23.463Z,4.31
2019-04-11T21:15:56.343Z,4.27
2019-04-11T21:18:27.726Z,4.22
2019-04-11T21:20:58.670Z,4.24
2019-04-11T21:23:30.301Z,4.29
2019-04-11T21:26:01.813Z,4.32
2019-04-11T21:28:33.403Z,4.33
2019-04-11T21:31:05.507Z,4.32
2019-04-11T21:33:36.293Z,4.30
2019-04-11T21:36:07.185Z,4.24
2019-04-11T21:38:38.221Z,4.25
2019-04-11T21:41:09.331Z,4.27
2019-04-11T21:43:40.407Z,4.30
2019-04-11T21:46:12.219Z,4.31
2019-04-11T21:48:42.886Z,4.30
2019-04-11T21:51:14.397Z,4.29
2019-04-11T21:53:46.143Z,4.22
2019-04-11T21:56:18.627Z,4.29
2019-04-11T21:58:50.751Z,4.23
2019-04-11T22:01:24.858Z,4.10
2019-04-11T22:03:57.975Z,4.13
2019-04-11T22:06:30.532Z,4.13
2019-04-11T22:09:04.851Z,4.21
2019-04-11T22:11:38.458Z,4.27
2019-04-11T22:14:11.319Z,4.16
2019-04-11T22:16:45.121Z,4.07
2019-04-11T22:19:16.724Z,4.08
2019-04-11T22:21:48.223Z,4.08
2019-04-11T22:24:19.444Z,4.06
2019-04-11T22:26:51.226Z,4.11
2019-04-11T22:29:25.032Z,4.15
2019-04-11T22:31:56.571Z,4.15
2019-04-11T22:34:29.558Z,4.21
2019-04-11T22:37:00.976Z,4.11
2019-04-11T22:39:34.031Z,4.09
2019-04-11T22:42:06.492Z,4.03
2019-04-11T22:44:40.867Z,4.06
2019-04-11T22:47:12.839Z,4.10
2019-04-11T22:49:44.196Z,4.10
2019-04-11T22:52:15.360Z,4.11
2019-04-11T22:54:47.497Z,4.05
2019-04-11T22:57:19.695Z,4.02
2019-04-11T22:59:51.136Z,4.03
2019-04-11T23:02:28.188Z,4.03
2019-04-11T23:04:59.502Z,4.06
2019-04-11T23:07:31.256Z,4.05
2019-04-11T23:10:03.031Z,4.06
2019-04-11T23:12:34.645Z,4.06
2019-04-11T23:15:07.811Z,4.05
2019-04-11T23:17:41.751Z,4.02
2019-04-11T23:20:14.292Z,4.03
2019-04-11T23:22:46.216Z,4.06
2019-04-11T23:25:19.542Z,4.09
2019-04-11T23:27:51.613Z,4.15
2019-04-11T23:30:23.005Z,4.07
2019-04-11T23:32:54.556Z,3.99
2019-04-11T23:35:25.914Z,4.04
2019-04-11T23:37:57.649Z,3.96
2019-04-11T23:40:29.158Z,3.98
2019-04-11T23:43:01.765Z,3.94
2019-04-11T23:45:33.830Z,3.93
2019-04-11T23:48:05.395Z,3.96
2019-04-11T23:50:36.774Z,3.93
2019-04-11T23:53:08.170Z,3.90
2019-04-11T23:55:39.690Z,3.88
2019-04-11T23:58:10.700Z,3.95
